Time;durP1;ratioP1;P1;durP2;ratioP2;P2;SDS_P1;SDS_P2;PMS_P1;PMS_P2;Temp;Humidity;BMP_temperature;BMP_pressure;BME280_temperature;BME280_humidity;BME280_pressure;Samples;Min_cycle;Max_cycle;Signal;HPM_P1;HPM_P2
2023/01/10 00:01:39;;;;;;;19.98;2.90;;;;;;;;;;5072714;28;20080;-77
2023/01/10 00:04:05;;;;;;;15.82;3.15;;;;;;;;;;5072276;28;20041;-78
2023/01/10 00:06:31;;;;;;;22.27;2.88;;;;;;;;;;5072558;28;20055;-77
2023/01/10 00:08:58;;;;;;;17.98;3.28;;;;;;;;;;5055604;28;20090;-77
2023/01/10 00:14:10;;;;;;;22.98;2.83;;;;;;;;;;5058091;28;20063;-78
2023/01/10 00:16:38;;;;;;;19.90;3.00;;;;;;;;;;5072374;28;20052;-77
2023/01/10 00:19:04;;;;;;;22.65;3.28;;;;;;;;;;5073257;28;20116;-78
2023/01/10 00:21:30;;;;;;;17.25;2.67;;;;;;;;;;5072114;28;20079;-77
2023/01/10 00:23:59;;;;;;;20.95;4.00;;;;;;;;;;5071822;28;20041;-77
2023/01/10 00:26:25;;;;;;;20.75;3.10;;;;;;;;;;5065503;28;20037;-78
2023/01/10 00:28:51;;;;;;;18.70;3.13;;;;;;;;;;5052248;28;20045;-78
2023/01/10 00:31:17;;;;;;;16.65;2.67;;;;;;;;;;5052060;28;20068;-78
2023/01/10 00:33:44;;;;;;;21.60;3.05;;;;;;;;;;5052003;28;20033;-78
2023/01/10 00:36:11;;;;;;;28.48;2.83;;;;;;;;;;5035555;28;20486;-77
2023/01/10 00:38:37;;;;;;;14.30;2.65;;;;;;;;;;5035527;28;20052;-77
2023/01/10 00:43:55;;;;;;;16.73;2.42;;;;;;;;;;5052968;28;20066;-77
2023/01/10 00:43:55;;;;;;;17.08;2.17;;;;;;;;;;5051692;28;20048;-77
2023/01/10 00:46:21;;;;;;;16.92;2.58;;;;;;;;;;5052144;28;20029;-78
2023/01/10 00:48:47;;;;;;;19.20;2.45;;;;;;;;;;5052245;28;20075;-77
2023/01/10 00:51:13;;;;;;;24.10;2.90;;;;;;;;;;5051578;28;20508;-77
2023/01/10 00:53:40;;;;;;;20.35;3.55;;;;;;;;;;5053347;28;20065;-77
2023/01/10 00:56:06;;;;;;;19.77;2.90;;;;;;;;;;5051946;28;20045;-77
2023/01/10 00:58:32;;;;;;;16.27;2.50;;;;;;;;;;5051068;28;20045;-77
2023/01/10 01:00:59;;;;;;;24.88;3.22;;;;;;;;;;5050894;28;20441;-77
2023/01/10 01:03:25;;;;;;;18.02;2.85;;;;;;;;;;5051565;28;20541;-78
2023/01/10 01:05:51;;;;;;;21.92;3.28;;;;;;;;;;5034780;28;20090;-78
2023/01/10 01:08:18;;;;;;;15.88;2.83;;;;;;;;;;5050939;28;20737;-78
2023/01/10 01:10:44;;;;;;;19.58;2.70;;;;;;;;;;5051480;28;20049;-78
2023/01/10 01:13:13;;;;;;;14.32;2.45;;;;;;;;;;5050772;28;20041;-77
2023/01/10 01:15:39;;;;;;;19.52;2.58;;;;;;;;;;5051195;28;20049;-77
2023/01/10 01:18:06;;;;;;;13.57;2.83;;;;;;;;;;5050812;28;20163;-77
2023/01/10 01:20:33;;;;;;;20.73;3.97;;;;;;;;;;5051623;28;20049;-78
2023/01/10 01:22:59;;;;;;;22.35;3.42;;;;;;;;;;5052502;28;20061;-78
2023/01/10 01:25:26;;;;;;;21.88;2.88;;;;;;;;;;5051356;28;20049;-78
2023/01/10 01:27:53;;;;;;;16.98;2.40;;;;;;;;;;5052063;28;20482;-78
2023/01/10 01:30:19;;;;;;;16.48;2.50;;;;;;;;;;5051005;28;20090;-78
2023/01/10 01:32:45;;;;;;;21.27;3.10;;;;;;;;;;5052316;28;20079;-78
2023/01/10 01:35:13;;;;;;;19.70;2.50;;;;;;;;;;5050653;28;20139;-77
2023/01/10 01:37:39;;;;;;;18.20;3.17;;;;;;;;;;5034326;28;20033;-77
2023/01/10 01:40:06;;;;;;;18.20;2.40;;;;;;;;;;5051904;28;20041;-77
2023/01/10 01:42:33;;;;;;;20.98;2.80;;;;;;;;;;5051191;28;20536;-77
2023/01/10 01:45:08;;;;;;;16.50;2.75;;;;;;;;;;5050686;28;20108;-78
2023/01/10 01:47:37;;;;;;;17.30;2.50;;;;;;;;;;5051040;28;20508;-78
2023/01/10 01:50:04;;;;;;;16.15;2.67;;;;;;;;;;5050340;28;20047;-77
2023/01/10 01:52:33;;;;;;;21.02;2.80;;;;;;;;;;5052164;28;20044;-78
2023/01/10 01:55:00;;;;;;;13.73;2.63;;;;;;;;;;5051012;28;20048;-78
2023/01/10 01:57:27;;;;;;;13.18;2.05;;;;;;;;;;5033884;28;20037;-78
2023/01/10 01:59:54;;;;;;;17.65;2.10;;;;;;;;;;5033637;28;20080;-78
2023/01/10 02:02:20;;;;;;;21.10;2.45;;;;;;;;;;5050408;28;20041;-78
2023/01/10 02:04:50;;;;;;;23.83;3.45;;;;;;;;;;5050532;28;20084;-77
2023/01/10 02:07:17;;;;;;;19.17;2.33;;;;;;;;;;5050183;28;20059;-77
2023/01/10 02:09:50;;;;;;;18.60;2.63;;;;;;;;;;5050598;28;20128;-77
2023/01/10 02:12:16;;;;;;;17.45;2.25;;;;;;;;;;5050415;28;20123;-78
2023/01/10 02:14:43;;;;;;;24.88;3.72;;;;;;;;;;5054693;28;20052;-77
2023/01/10 02:17:09;;;;;;;17.63;2.42;;;;;;;;;;5054345;28;20045;-78
2023/01/10 02:19:56;;;;;;;22.95;2.40;;;;;;;;;;5044294;28;20090;-77
2023/01/10 02:22:53;;;;;;;15.55;2.50;;;;;;;;;;5086647;28;20036;-77
2023/01/10 02:25:31;;;;;;;18.17;2.67;;;;;;;;;;5054289;28;20397;-77
2023/01/10 02:27:57;;;;;;;20.30;2.63;;;;;;;;;;5054421;28;20029;-77
2023/01/10 02:30:42;;;;;;;12.52;2.50;;;;;;;;;;5054202;28;20489;-78
2023/01/10 02:33:21;;;;;;;19.02;2.42;;;;;;;;;;5054048;28;20110;-78
2023/01/10 02:35:48;;;;;;;13.35;2.15;;;;;;;;;;5061646;28;20448;-78
2023/01/10 02:38:17;;;;;;;14.55;2.25;;;;;;;;;;5040170;28;20463;-78
2023/01/10 02:40:47;;;;;;;15.10;2.75;;;;;;;;;;5054567;28;20484;-77
2023/01/10 02:43:19;;;;;;;15.85;2.45;;;;;;;;;;5054027;28;20087;-77
2023/01/10 02:45:45;;;;;;;19.25;2.65;;;;;;;;;;5054181;28;20045;-78
2023/01/10 02:48:11;;;;;;;15.60;2.35;;;;;;;;;;5053709;28;20032;-77
2023/01/10 02:50:43;;;;;;;22.13;2.60;;;;;;;;;;5053872;28;20060;-78
2023/01/10 02:53:18;;;;;;;13.93;2.67;;;;;;;;;;5037358;28;20045;-78
2023/01/10 02:55:47;;;;;;;16.75;2.72;;;;;;;;;;5054076;28;20041;-78
2023/01/10 02:58:23;;;;;;;23.65;3.25;;;;;;;;;;5053535;28;20033;-78
2023/01/10 03:01:04;;;;;;;19.23;3.50;;;;;;;;;;5053279;28;20577;-78
2023/01/10 03:03:44;;;;;;;16.85;2.80;;;;;;;;;;5043056;28;20102;-77
2023/01/10 03:06:45;;;;;;;26.45;3.00;;;;;;;;;;5036590;28;20041;-78
2023/01/10 03:09:19;;;;;;;13.35;2.58;;;;;;;;;;5032867;28;20068;-77
2023/01/10 03:11:46;;;;;;;24.00;3.00;;;;;;;;;;5046992;28;20398;-77
2023/01/10 03:14:12;;;;;;;17.67;2.53;;;;;;;;;;5037029;28;20040;-78
2023/01/10 03:16:39;;;;;;;20.33;2.80;;;;;;;;;;5053787;28;20383;-77
2023/01/10 03:19:10;;;;;;;17.60;3.00;;;;;;;;;;5054745;28;20071;-77
2023/01/10 03:21:38;;;;;;;17.40;3.10;;;;;;;;;;5053270;28;20044;-77
2023/01/10 03:24:13;;;;;;;25.70;3.95;;;;;;;;;;5054084;28;20059;-77
2023/01/10 03:26:47;;;;;;;18.27;2.60;;;;;;;;;;5054799;28;20075;-78
2023/01/10 03:29:16;;;;;;;23.02;3.20;;;;;;;;;;5036676;28;20041;-77
2023/01/10 03:31:45;;;;;;;18.08;3.75;;;;;;;;;;5036492;28;20098;-78
2023/01/10 03:34:12;;;;;;;19.45;2.88;;;;;;;;;;5053074;28;20124;-77
2023/01/10 03:36:59;;;;;;;20.42;2.90;;;;;;;;;;5052868;28;20052;-78
2023/01/10 03:39:32;;;;;;;22.27;3.55;;;;;;;;;;5052548;28;20041;-78
2023/01/10 03:41:58;;;;;;;19.38;3.05;;;;;;;;;;5054517;28;20512;-78
2023/01/10 03:44:44;;;;;;;18.38;2.75;;;;;;;;;;5054214;28;20108;-78
2023/01/10 03:47:23;;;;;;;17.93;2.23;;;;;;;;;;5052880;28;20045;-77
2023/01/10 03:49:53;;;;;;;15.75;3.03;;;;;;;;;;5034471;28;20315;-77
2023/01/10 03:52:20;;;;;;;23.10;3.53;;;;;;;;;;5077733;28;20123;-78
2023/01/10 03:54:47;;;;;;;25.58;3.50;;;;;;;;;;5073169;28;20056;-78
2023/01/10 03:57:17;;;;;;;24.75;3.90;;;;;;;;;;5073072;28;20044;-78
2023/01/10 03:59:44;;;;;;;26.45;4.13;;;;;;;;;;5072584;28;20060;-78
2023/01/10 04:02:10;;;;;;;19.63;3.58;;;;;;;;;;5072351;28;20056;-78
2023/01/10 04:04:36;;;;;;;20.70;4.18;;;;;;;;;;5072292;28;20045;-78
2023/01/10 04:07:02;;;;;;;20.83;3.30;;;;;;;;;;5072415;28;20040;-78
2023/01/10 04:09:28;;;;;;;23.30;3.65;;;;;;;;;;5072101;28;20044;-78
2023/01/10 04:11:54;;;;;;;23.17;3.35;;;;;;;;;;5073666;28;20045;-77
2023/01/10 04:14:20;;;;;;;24.73;4.10;;;;;;;;;;5073659;28;20112;-77
2023/01/10 04:16:46;;;;;;;22.50;3.55;;;;;;;;;;5043287;28;20048;-78
2023/01/10 04:19:12;;;;;;;23.52;3.35;;;;;;;;;;5072889;28;20041;-78
2023/01/10 04:21:38;;;;;;;26.85;3.45;;;;;;;;;;5105866;28;20040;-78
2023/01/10 04:24:04;;;;;;;29.75;4.03;;;;;;;;;;5055339;28;20036;-77
2023/01/10 04:26:30;;;;;;;29.15;3.65;;;;;;;;;;5071641;28;20119;-78
2023/01/10 04:28:56;;;;;;;20.00;3.92;;;;;;;;;;5072257;28;20045;-78
2023/01/10 04:31:22;;;;;;;22.95;3.67;;;;;;;;;;5071856;28;20556;-78
2023/01/10 04:33:48;;;;;;;26.15;3.42;;;;;;;;;;5067331;28;20045;-78
2023/01/10 04:36:15;;;;;;;30.33;4.03;;;;;;;;;;5053369;28;20048;-78
2023/01/10 04:38:41;;;;;;;21.98;3.55;;;;;;;;;;5054958;28;20091;-77
2023/01/10 04:41:07;;;;;;;28.52;4.03;;;;;;;;;;5073364;28;20040;-78
2023/01/10 04:43:33;;;;;;;24.35;4.13;;;;;;;;;;5071525;28;20041;-78
2023/01/10 04:45:59;;;;;;;31.77;3.85;;;;;;;;;;5071760;28;20037;-78
2023/01/10 04:48:26;;;;;;;23.67;4.70;;;;;;;;;;5071029;28;20040;-78
2023/01/10 04:50:52;;;;;;;21.92;3.55;;;;;;;;;;5071580;28;20059;-78
2023/01/10 04:53:19;;;;;;;26.05;4.28;;;;;;;;;;5054974;28;20044;-78
2023/01/10 04:55:45;;;;;;;20.08;3.63;;;;;;;;;;5071319;28;20405;-78
2023/01/10 04:58:12;;;;;;;26.65;3.75;;;;;;;;;;5054916;28;20044;-78
2023/01/10 05:00:38;;;;;;;26.70;3.42;;;;;;;;;;5070966;28;20049;-77
2023/01/10 05:03:04;;;;;;;20.77;3.78;;;;;;;;;;5065559;28;20111;-77
2023/01/10 05:05:31;;;;;;;24.25;3.88;;;;;;;;;;5057072;28;20115;-77
2023/01/10 05:07:57;;;;;;;22.70;3.13;;;;;;;;;;5071330;28;20474;-77
2023/01/10 05:10:23;;;;;;;24.98;3.70;;;;;;;;;;5054595;28;20098;-77
2023/01/10 05:12:49;;;;;;;19.95;3.53;;;;;;;;;;5070834;28;20049;-78
2023/01/10 05:15:15;;;;;;;15.68;2.90;;;;;;;;;;5071437;28;20512;-78
2023/01/10 05:17:41;;;;;;;28.27;3.40;;;;;;;;;;5071022;28;20497;-78
2023/01/10 05:20:08;;;;;;;30.23;4.22;;;;;;;;;;5070839;28;20605;-78
2023/01/10 05:22:34;;;;;;;25.15;3.50;;;;;;;;;;5065364;28;20068;-78
2023/01/10 05:25:00;;;;;;;25.77;4.15;;;;;;;;;;5063894;28;20048;-77
2023/01/10 05:27:26;;;;;;;18.60;3.35;;;;;;;;;;5072202;28;20036;-78
2023/01/10 05:29:52;;;;;;;25.80;3.70;;;;;;;;;;5070951;28;20378;-77
2023/01/10 05:32:18;;;;;;;24.25;3.45;;;;;;;;;;5070845;28;20099;-78
2023/01/10 05:34:44;;;;;;;28.15;3.83;;;;;;;;;;5056265;28;20040;-78
2023/01/10 05:37:10;;;;;;;24.77;3.17;;;;;;;;;;5071131;28;20044;-78
2023/01/10 05:39:38;;;;;;;17.23;3.00;;;;;;;;;;5070301;28;20079;-77
2023/01/10 05:42:04;;;;;;;28.95;3.65;;;;;;;;;;5071124;28;20048;-78
2023/01/10 05:44:30;;;;;;;29.17;3.85;;;;;;;;;;5070827;28;20559;-78
2023/01/10 05:46:56;;;;;;;25.52;4.05;;;;;;;;;;5070999;28;20568;-78
2023/01/10 05:49:23;;;;;;;18.33;3.30;;;;;;;;;;5070682;28;20048;-77
2023/01/10 05:51:49;;;;;;;27.13;4.13;;;;;;;;;;5071548;28;20116;-78
2023/01/10 05:54:15;;;;;;;19.73;3.50;;;;;;;;;;5071106;28;20074;-78
2023/01/10 05:56:41;;;;;;;24.48;4.47;;;;;;;;;;5070409;28;20122;-78
2023/01/10 05:59:07;;;;;;;32.25;3.95;;;;;;;;;;5070908;28;20056;-77
2023/01/10 06:01:34;;;;;;;25.58;3.95;;;;;;;;;;5070768;28;20040;-77
2023/01/10 06:04:00;;;;;;;24.63;3.75;;;;;;;;;;5071009;28;20044;-77
2023/01/10 06:06:26;;;;;;;27.38;4.30;;;;;;;;;;5070830;28;20037;-77
2023/01/10 06:08:54;;;;;;;33.03;4.10;;;;;;;;;;5057840;28;20051;-77
2023/01/10 06:11:22;;;;;;;31.23;4.20;;;;;;;;;;5072167;28;20440;-78
2023/01/10 06:13:52;;;;;;;23.80;3.47;;;;;;;;;;5054033;28;20119;-78
2023/01/10 06:16:18;;;;;;;24.00;4.43;;;;;;;;;;5054285;28;20040;-78
2023/01/10 06:18:44;;;;;;;29.88;4.00;;;;;;;;;;5070523;28;20481;-78
2023/01/10 06:21:10;;;;;;;26.98;4.07;;;;;;;;;;5070961;28;20043;-78
2023/01/10 06:23:38;;;;;;;26.98;3.75;;;;;;;;;;5070506;28;20401;-78
2023/01/10 06:26:04;;;;;;;23.92;3.63;;;;;;;;;;5071125;28;20042;-77
2023/01/10 06:28:30;;;;;;;25.67;3.88;;;;;;;;;;5071032;28;20485;-78
2023/01/10 06:30:56;;;;;;;19.00;3.25;;;;;;;;;;5071406;28;20881;-78
2023/01/10 06:33:22;;;;;;;34.03;4.80;;;;;;;;;;5069641;28;20436;-78
2023/01/10 06:35:48;;;;;;;30.00;3.92;;;;;;;;;;5037214;28;20037;-78
2023/01/10 06:38:15;;;;;;;28.20;4.80;;;;;;;;;;5070294;28;20136;-78
2023/01/10 06:40:41;;;;;;;28.38;4.20;;;;;;;;;;5070083;28;20052;-78
2023/01/10 06:43:07;;;;;;;35.55;4.53;;;;;;;;;;5053901;28;20040;-78
2023/01/10 06:45:33;;;;;;;28.90;3.83;;;;;;;;;;5053783;28;20041;-79
2023/01/10 06:47:59;;;;;;;30.45;4.35;;;;;;;;;;5072839;28;20041;-77
2023/01/10 06:50:25;;;;;;;34.05;5.05;;;;;;;;;;5070147;28;20044;-76
2023/01/10 06:52:58;;;;;;;28.98;4.90;;;;;;;;;;5053336;28;20083;-77
2023/01/10 06:55:25;;;;;;;25.48;4.45;;;;;;;;;;5053629;28;20127;-77
2023/01/10 06:57:55;;;;;;;30.20;4.13;;;;;;;;;;5069757;28;20051;-76
2023/01/10 07:00:21;;;;;;;28.33;4.03;;;;;;;;;;5056683;28;20097;-76
2023/01/10 07:02:47;;;;;;;31.73;4.60;;;;;;;;;;5056765;28;20040;-76
2023/01/10 07:05:13;;;;;;;33.60;4.70;;;;;;;;;;5073683;28;20033;-76
2023/01/10 07:07:39;;;;;;;34.45;5.47;;;;;;;;;;5073856;28;20044;-76
2023/01/10 07:10:06;;;;;;;30.55;4.18;;;;;;;;;;5074733;28;20047;-76
2023/01/10 07:12:32;;;;;;;34.92;5.00;;;;;;;;;;5073740;28;20463;-76
2023/01/10 07:14:58;;;;;;;31.27;4.80;;;;;;;;;;5073240;28;20054;-77
2023/01/10 07:17:24;;;;;;;34.13;5.20;;;;;;;;;;5073639;28;20037;-76
2023/01/10 07:19:50;;;;;;;29.30;4.28;;;;;;;;;;5061012;28;20124;-76
2023/01/10 07:22:16;;;;;;;30.00;4.47;;;;;;;;;;5071564;28;20206;-76
2023/01/10 07:24:42;;;;;;;31.77;4.72;;;;;;;;;;5073448;28;20045;-76
2023/01/10 07:27:08;;;;;;;27.30;4.20;;;;;;;;;;5040179;28;20032;-77
2023/01/10 07:29:34;;;;;;;32.28;4.95;;;;;;;;;;5073334;28;20093;-77
2023/01/10 07:32:00;;;;;;;34.97;5.38;;;;;;;;;;5072886;28;20044;-77
2023/01/10 07:34:26;;;;;;;34.33;4.63;;;;;;;;;;5053076;28;20072;-76
2023/01/10 07:36:52;;;;;;;47.88;5.22;;;;;;;;;;5072929;28;20044;-77
2023/01/10 07:39:18;;;;;;;38.22;4.40;;;;;;;;;;5074727;28;20131;-76
2023/01/10 07:41:46;;;;;;;32.03;4.75;;;;;;;;;;5074716;28;20036;-77
2023/01/10 07:44:12;;;;;;;27.63;5.32;;;;;;;;;;5073019;28;20044;-77
2023/01/10 07:46:38;;;;;;;29.27;4.45;;;;;;;;;;5064261;28;20048;-77
2023/01/10 07:49:05;;;;;;;33.47;4.97;;;;;;;;;;5069150;28;20125;-77
2023/01/10 07:51:31;;;;;;;41.15;4.97;;;;;;;;;;5072959;28;20497;-77
2023/01/10 07:53:57;;;;;;;30.70;4.75;;;;;;;;;;5072491;28;20045;-77
2023/01/10 07:56:23;;;;;;;24.45;4.20;;;;;;;;;;5074153;28;20040;-77
2023/01/10 07:58:49;;;;;;;27.50;4.75;;;;;;;;;;5072229;28;20048;-76
2023/01/10 08:01:17;;;;;;;29.25;5.07;;;;;;;;;;5073060;28;20099;-77
2023/01/10 08:03:43;;;;;;;29.13;5.28;;;;;;;;;;5072717;28;20071;-76
2023/01/10 08:06:10;;;;;;;30.60;4.97;;;;;;;;;;5055616;28;20080;-77
2023/01/10 08:08:36;;;;;;;27.67;5.05;;;;;;;;;;5073791;28;20051;-77
2023/01/10 08:11:02;;;;;;;35.35;5.25;;;;;;;;;;5072289;28;20040;-77
2023/01/10 08:13:29;;;;;;;28.55;4.97;;;;;;;;;;5072335;28;20098;-77
2023/01/10 08:15:55;;;;;;;25.67;4.45;;;;;;;;;;5065624;28;20048;-77
2023/01/10 08:18:22;;;;;;;29.48;5.65;;;;;;;;;;5065234;28;20077;-77
2023/01/10 08:20:49;;;;;;;27.65;4.68;;;;;;;;;;5055643;28;20036;-77
2023/01/10 08:23:15;;;;;;;26.45;6.05;;;;;;;;;;5072252;28;20402;-76
2023/01/10 08:25:41;;;;;;;20.23;4.47;;;;;;;;;;5072578;28;20474;-77
2023/01/10 08:28:07;;;;;;;32.85;5.00;;;;;;;;;;5071898;28;20174;-77
2023/01/10 08:30:33;;;;;;;24.30;5.47;;;;;;;;;;5072257;28;20520;-77
2023/01/10 08:33:02;;;;;;;34.30;6.25;;;;;;;;;;5055346;28;20033;-76
2023/01/10 08:35:28;;;;;;;29.42;5.07;;;;;;;;;;5072412;28;20528;-77
2023/01/10 08:37:58;;;;;;;29.27;4.90;;;;;;;;;;5072900;28;20036;-77
2023/01/10 08:40:24;;;;;;;22.55;5.07;;;;;;;;;;5072029;28;20049;-77
2023/01/10 08:42:56;;;;;;;32.40;4.80;;;;;;;;;;5058089;28;20509;-77
2023/01/10 08:45:22;;;;;;;29.73;4.60;;;;;;;;;;5072190;28;20044;-77
2023/01/10 08:47:48;;;;;;;34.95;5.00;;;;;;;;;;5071780;28;20036;-77
2023/01/10 08:50:14;;;;;;;35.20;6.47;;;;;;;;;;5071332;28;20036;-77
2023/01/10 08:52:40;;;;;;;28.58;4.65;;;;;;;;;;5071827;28;20123;-77
2023/01/10 08:55:07;;;;;;;26.65;4.82;;;;;;;;;;5071643;28;20050;-77
2023/01/10 08:57:33;;;;;;;23.25;4.30;;;;;;;;;;5072024;28;20040;-77
2023/01/10 08:59:59;;;;;;;31.02;4.32;;;;;;;;;;5054463;28;20804;-76
2023/01/10 09:02:25;;;;;;;24.88;4.68;;;;;;;;;;5071618;28;20047;-76
2023/01/10 09:04:51;;;;;;;23.15;3.90;;;;;;;;;;5071342;28;20041;-77
2023/01/10 09:07:17;;;;;;;28.40;4.43;;;;;;;;;;5071795;28;20028;-77
2023/01/10 09:09:43;;;;;;;26.42;4.85;;;;;;;;;;5055276;28;20055;-77
2023/01/10 09:14:54;;;;;;;25.15;3.83;;;;;;;;;;5071594;28;20508;-77
2023/01/10 09:17:20;;;;;;;23.65;4.15;;;;;;;;;;5071010;28;20040;-77
2023/01/10 09:19:46;;;;;;;22.25;3.45;;;;;;;;;;5072818;28;20503;-77
2023/01/10 09:22:12;;;;;;;27.88;4.13;;;;;;;;;;5039867;28;20064;-77
2023/01/10 09:24:40;;;;;;;24.85;3.67;;;;;;;;;;5071714;28;20037;-77
2023/01/10 09:27:06;;;;;;;23.67;3.40;;;;;;;;;;5070826;28;20044;-77
2023/01/10 09:29:32;;;;;;;23.15;3.60;;;;;;;;;;5071281;28;20080;-77
2023/01/10 09:31:59;;;;;;;24.38;3.60;;;;;;;;;;5054037;28;20040;-77
2023/01/10 09:34:25;;;;;;;18.60;3.33;;;;;;;;;;5057590;28;20486;-77
2023/01/10 09:36:52;;;;;;;25.83;4.20;;;;;;;;;;5071519;28;20045;-77
2023/01/10 09:39:20;;;;;;;26.35;3.38;;;;;;;;;;5070552;28;20051;-77
2023/01/10 09:41:55;;;;;;;26.83;3.80;;;;;;;;;;5071577;28;20079;-77
2023/01/10 09:44:30;;;;;;;20.97;3.50;;;;;;;;;;5070716;28;20040;-77
2023/01/10 09:47:07;;;;;;;26.03;3.70;;;;;;;;;;5071405;28;20040;-77
2023/01/10 09:49:40;;;;;;;18.45;3.38;;;;;;;;;;5071190;28;20290;-77
2023/01/10 09:52:10;;;;;;;19.35;3.40;;;;;;;;;;5070726;28;20128;-77
2023/01/10 09:54:39;;;;;;;22.17;3.65;;;;;;;;;;5070989;28;20041;-77
2023/01/10 09:57:05;;;;;;;25.30;4.53;;;;;;;;;;5070806;28;20071;-77
2023/01/10 09:59:37;;;;;;;17.90;3.92;;;;;;;;;;5070723;28;20084;-77
2023/01/10 10:02:27;;;;;;;23.48;3.92;;;;;;;;;;5056291;28;20045;-77
2023/01/10 10:05:07;;;;;;;22.20;4.03;;;;;;;;;;5051907;28;20056;-77
2023/01/10 10:07:34;;;;;;;19.08;4.28;;;;;;;;;;5054282;28;20036;-77
2023/01/10 10:10:00;;;;;;;26.60;4.43;;;;;;;;;;5070900;28;20489;-77
2023/01/10 10:12:35;;;;;;;32.17;4.40;;;;;;;;;;5070666;28;20385;-76
2023/01/10 10:15:04;;;;;;;35.43;5.27;;;;;;;;;;5070816;28;20045;-76
2023/01/10 10:17:50;;;;;;;31.00;5.45;;;;;;;;;;5072233;28;20271;-77
2023/01/10 10:20:16;;;;;;;31.02;5.65;;;;;;;;;;5070567;28;20048;-77
2023/01/10 10:23:00;;;;;;;27.08;5.65;;;;;;;;;;5070968;28;20482;-77
2023/01/10 10:25:36;;;;;;;38.55;6.05;;;;;;;;;;5070127;28;20040;-76
2023/01/10 10:28:02;;;;;;;38.35;6.55;;;;;;;;;;5071245;28;20040;-77
2023/01/10 10:30:46;;;;;;;32.28;6.88;;;;;;;;;;5070441;28;20059;-77
2023/01/10 10:33:36;;;;;;;34.88;7.50;;;;;;;;;;5070426;28;20105;-77
2023/01/10 10:36:04;;;;;;;29.55;7.05;;;;;;;;;;5029609;28;20048;-77
2023/01/10 10:38:33;;;;;;;32.45;6.82;;;;;;;;;;5074422;28;20452;-77
2023/01/10 10:40:59;;;;;;;31.77;7.68;;;;;;;;;;5074164;28;20036;-77
2023/01/10 10:43:34;;;;;;;33.45;7.88;;;;;;;;;;5074053;28;20119;-77
2023/01/10 10:46:01;;;;;;;26.77;6.63;;;;;;;;;;5074510;28;20486;-76
2023/01/10 10:48:32;;;;;;;26.20;6.97;;;;;;;;;;5075263;28;20040;-77
2023/01/10 10:51:02;;;;;;;26.98;6.53;;;;;;;;;;5074238;28;20065;-76
2023/01/10 10:53:29;;;;;;;29.70;7.35;;;;;;;;;;5074200;28;20629;-77
2023/01/10 10:55:56;;;;;;;28.52;6.53;;;;;;;;;;5075342;28;20040;-77
2023/01/10 10:58:22;;;;;;;28.20;7.35;;;;;;;;;;5074770;28;20086;-77
2023/01/10 11:00:48;;;;;;;28.77;6.95;;;;;;;;;;5075249;28;20488;-77
2023/01/10 11:03:17;;;;;;;27.30;7.70;;;;;;;;;;5042995;28;20119;-77
2023/01/10 11:05:45;;;;;;;27.70;7.38;;;;;;;;;;5073900;28;20040;-77
2023/01/10 11:08:12;;;;;;;33.30;7.72;;;;;;;;;;5073639;28;20044;-77
2023/01/10 11:10:39;;;;;;;34.05;7.53;;;;;;;;;;5074062;28;20048;-77
2023/01/10 11:13:15;;;;;;;26.95;8.20;;;;;;;;;;5073895;28;20490;-77
2023/01/10 11:15:45;;;;;;;25.38;5.47;;;;;;;;;;5069255;28;20033;-77
2023/01/10 11:18:11;;;;;;;29.23;8.02;;;;;;;;;;5066089;28;20043;-77
2023/01/10 11:20:45;;;;;;;32.90;6.88;;;;;;;;;;5056884;28;20044;-77
2023/01/10 11:23:11;;;;;;;26.25;7.10;;;;;;;;;;5062075;28;20068;-77
2023/01/10 11:25:45;;;;;;;33.08;7.75;;;;;;;;;;5054709;28;20040;-77
2023/01/10 11:28:14;;;;;;;25.25;6.40;;;;;;;;;;5057096;28;20044;-77
2023/01/10 11:30:40;;;;;;;27.27;6.00;;;;;;;;;;5073566;28;20086;-77
2023/01/10 11:33:07;;;;;;;29.45;6.63;;;;;;;;;;5073476;28;20040;-78
2023/01/10 11:35:35;;;;;;;22.23;5.43;;;;;;;;;;5069786;28;20049;-76
2023/01/10 11:38:03;;;;;;;25.50;5.95;;;;;;;;;;5075195;28;20501;-77
2023/01/10 11:40:30;;;;;;;24.00;5.93;;;;;;;;;;5074385;28;20071;-76
2023/01/10 11:42:57;;;;;;;21.30;5.63;;;;;;;;;;5073269;28;20177;-76
2023/01/10 11:45:25;;;;;;;29.13;6.22;;;;;;;;;;5072650;28;20036;-76
2023/01/10 11:47:56;;;;;;;23.67;5.50;;;;;;;;;;5073018;28;20043;-77
2023/01/10 11:50:27;;;;;;;31.77;5.40;;;;;;;;;;5073113;28;20037;-77
2023/01/10 11:52:54;;;;;;;31.90;6.40;;;;;;;;;;5072784;28;20102;-77
2023/01/10 11:55:25;;;;;;;25.83;5.85;;;;;;;;;;5072808;28;20386;-76
2023/01/10 11:57:56;;;;;;;25.77;5.47;;;;;;;;;;5055895;28;20098;-77
2023/01/10 12:00:22;;;;;;;19.05;6.25;;;;;;;;;;5072268;28;20047;-76
2023/01/10 12:02:51;;;;;;;24.45;5.95;;;;;;;;;;5073023;28;20393;-77
2023/01/10 12:05:22;;;;;;;25.38;5.43;;;;;;;;;;5068068;28;20036;-77
2023/01/10 12:08:09;;;;;;;31.42;5.55;;;;;;;;;;5054297;28;20045;-77
2023/01/10 12:10:35;;;;;;;23.95;5.63;;;;;;;;;;5038666;28;20124;-76
2023/01/10 12:13:13;;;;;;;37.00;6.68;;;;;;;;;;5064688;28;20048;-77
2023/01/10 12:15:39;;;;;;;26.92;6.05;;;;;;;;;;5072096;28;20056;-77
2023/01/10 12:18:06;;;;;;;27.63;5.60;;;;;;;;;;5073882;28;20044;-76
2023/01/10 12:20:53;;;;;;;32.05;5.88;;;;;;;;;;5071954;28;20094;-77
2023/01/10 12:23:21;;;;;;;22.75;6.47;;;;;;;;;;5072250;28;20045;-76
2023/01/10 12:25:47;;;;;;;29.92;7.13;;;;;;;;;;5072358;28;20032;-77
2023/01/10 12:28:32;;;;;;;18.35;6.05;;;;;;;;;;5072311;28;20040;-77
2023/01/10 12:30:59;;;;;;;26.10;5.57;;;;;;;;;;5072349;28;20047;-77
2023/01/10 12:33:33;;;;;;;19.45;4.20;;;;;;;;;;5071856;28;20049;-77
2023/01/10 12:36:19;;;;;;;32.55;6.13;;;;;;;;;;5058077;28;20102;-77
2023/01/10 12:39:03;;;;;;;31.77;5.28;;;;;;;;;;5051066;28;20131;-76
2023/01/10 12:44:29;;;;;;;26.95;4.53;;;;;;;;;;5070531;28;20076;-77
2023/01/10 12:47:09;;;;;;;22.95;5.95;;;;;;;;;;5073329;28;20098;-76
2023/01/10 12:49:39;;;;;;;26.25;5.60;;;;;;;;;;5057477;28;20115;-77
2023/01/10 12:52:11;;;;;;;26.75;5.13;;;;;;;;;;5073565;28;20076;-77
2023/01/10 12:54:37;;;;;;;26.35;5.80;;;;;;;;;;5057331;28;20062;-77
2023/01/10 12:57:10;;;;;;;23.88;6.03;;;;;;;;;;5060456;28;20037;-77
2023/01/10 12:59:40;;;;;;;26.77;5.65;;;;;;;;;;5052331;28;20067;-77
2023/01/10 13:02:14;;;;;;;31.83;5.95;;;;;;;;;;5071734;28;20044;-77
2023/01/10 13:04:42;;;;;;;34.70;5.70;;;;;;;;;;5071258;28;20033;-77
2023/01/10 13:07:10;;;;;;;26.52;4.70;;;;;;;;;;5054775;28;20036;-77
2023/01/10 13:09:37;;;;;;;33.00;5.97;;;;;;;;;;5071298;28;20123;-77
2023/01/10 13:12:40;;;;;;;23.60;4.57;;;;;;;;;;5071447;28;20119;-77
2023/01/10 13:15:45;;;;;;;18.67;4.72;;;;;;;;;;5058521;28;20502;-77
2023/01/10 13:18:18;;;;;;;17.55;4.20;;;;;;;;;;5060015;28;20075;-77
2023/01/10 13:20:45;;;;;;;20.70;4.25;;;;;;;;;;5066474;28;20115;-77
2023/01/10 13:23:20;;;;;;;20.33;3.97;;;;;;;;;;5062987;28;20068;-76
2023/01/10 13:25:54;;;;;;;18.97;4.13;;;;;;;;;;5071179;28;20440;-76
2023/01/10 13:28:23;;;;;;;13.70;3.30;;;;;;;;;;5071478;28;20079;-77
2023/01/10 13:31:09;;;;;;;26.05;4.63;;;;;;;;;;5054164;28;20067;-76
2023/01/10 13:33:40;;;;;;;25.67;5.07;;;;;;;;;;5064087;28;20437;-77
2023/01/10 13:36:10;;;;;;;29.08;6.43;;;;;;;;;;5071259;28;20101;-77
2023/01/10 13:38:55;;;;;;;29.17;5.85;;;;;;;;;;5070988;28;20189;-76
2023/01/10 13:44:08;;;;;;;30.50;4.95;;;;;;;;;;5070737;28;20045;-77
2023/01/10 13:46:36;;;;;;;17.20;4.28;;;;;;;;;;5072074;28;20094;-77
2023/01/10 13:49:02;;;;;;;18.88;4.03;;;;;;;;;;5070912;28;20053;-77
2023/01/10 13:51:29;;;;;;;18.95;3.95;;;;;;;;;;5064699;28;20079;-77
2023/01/10 13:54:15;;;;;;;29.17;3.67;;;;;;;;;;5063509;28;20037;-77
2023/01/10 13:56:43;;;;;;;20.70;3.97;;;;;;;;;;5071680;28;20113;-77
2023/01/10 14:02:30;;;;;;;19.13;4.05;;;;;;;;;;5055543;28;20067;-77
2023/01/10 14:04:59;;;;;;;27.80;4.35;;;;;;;;;;5070879;28;20493;-77
2023/01/10 14:07:30;;;;;;;21.92;3.80;;;;;;;;;;5071380;28;20058;-77
2023/01/10 14:10:02;;;;;;;20.65;4.13;;;;;;;;;;5074453;28;20094;-77
2023/01/10 14:12:34;;;;;;;22.85;3.65;;;;;;;;;;5074876;28;20071;-77
2023/01/10 14:15:02;;;;;;;21.40;3.60;;;;;;;;;;5074412;28;20044;-76
2023/01/10 14:17:35;;;;;;;22.98;3.35;;;;;;;;;;5054817;28;20044;-77
2023/01/10 14:20:04;;;;;;;20.75;5.20;;;;;;;;;;5068386;28;20041;-77
2023/01/10 14:22:33;;;;;;;22.65;3.55;;;;;;;;;;5080505;28;20066;-77
2023/01/10 14:25:00;;;;;;;16.83;3.90;;;;;;;;;;5074343;28;20044;-77
2023/01/10 14:27:31;;;;;;;17.13;3.55;;;;;;;;;;5074841;28;20039;-77
2023/01/10 14:29:58;;;;;;;19.90;4.22;;;;;;;;;;5075685;28;20115;-77
2023/01/10 14:32:39;;;;;;;22.00;4.85;;;;;;;;;;5074940;28;20469;-77
2023/01/10 14:35:09;;;;;;;22.25;6.55;;;;;;;;;;5074616;28;20083;-77
2023/01/10 14:37:39;;;;;;;24.38;5.13;;;;;;;;;;5070444;28;20045;-77
2023/01/10 14:40:25;;;;;;;29.55;5.18;;;;;;;;;;5065502;28;20080;-77
2023/01/10 14:42:51;;;;;;;;;;;;;;;;;;5074382;28;20093;-77
2023/01/10 14:45:33;;;;;;;25.33;4.32;;;;;;;;;;5074788;28;20396;-76
2023/01/10 14:47:59;;;;;;;17.05;3.30;;;;;;;;;;5054273;28;20044;-76
2023/01/10 14:50:28;;;;;;;21.48;3.28;;;;;;;;;;5066729;28;20056;-77
2023/01/10 14:52:55;;;;;;;24.50;3.10;;;;;;;;;;5073648;28;20048;-77
2023/01/10 14:55:21;;;;;;;14.50;3.72;;;;;;;;;;5074416;28;20102;-77
2023/01/10 14:57:54;;;;;;;24.17;3.70;;;;;;;;;;5059770;28;20516;-77